Time;durP1;ratioP1;P1;durP2;ratioP2;P2;SDS_P1;SDS_P2;PMS_P1;PMS_P2;Temp;Humidity;BMP_temperature;BMP_pressure;BME280_temperature;BME280_humidity;BME280_pressure;Samples;Min_cycle;Max_cycle;Signal;HPM_P1;HPM_P2
2022/09/29 00:01:46;;;;;;;0.60;0.60;;;4.80;99.90;;;;;;5051125;28;20457;-86
2022/09/29 00:04:12;;;;;;;0.60;0.60;;;4.80;99.90;;;;;;5089310;28;20507;-85
2022/09/29 00:06:38;;;;;;;0.60;0.60;;;4.80;99.90;;;;;;5079680;28;20044;-86
2022/09/29 00:09:04;;;;;;;0.70;0.70;;;4.80;99.90;;;;;;5080015;28;20051;-86
2022/09/29 00:11:31;;;;;;;0.70;0.70;;;4.80;99.90;;;;;;5082938;28;20097;-84
2022/09/29 00:13:57;;;;;;;0.60;0.60;;;4.80;99.90;;;;;;5085259;28;20374;-84
2022/09/29 00:16:23;;;;;;;;;;;4.80;99.90;;;;;;5082476;28;20524;-84
2022/09/29 00:18:48;;;;;;;0.60;0.60;;;4.80;99.90;;;;;;5076253;28;20063;-85
2022/09/29 00:21:20;;;;;;;0.57;0.57;;;4.70;99.90;;;;;;5065913;28;20206;-85
2022/09/29 00:23:47;;;;;;;0.60;0.60;;;4.70;99.90;;;;;;5049251;28;20181;-84
2022/09/29 00:26:15;;;;;;;0.50;0.50;;;5.10;99.90;;;;;;5085942;28;20051;-84
2022/09/29 00:28:55;;;;;;;0.60;0.60;;;4.80;99.90;;;;;;5067244;28;20083;-84
2022/09/29 00:31:28;;;;;;;0.70;0.70;;;4.70;99.90;;;;;;5083408;28;20053;-85
2022/09/29 00:33:55;;;;;;;0.65;0.65;;;4.70;99.90;;;;;;5082140;28;20040;-87
2022/09/29 00:36:22;;;;;;;0.60;0.60;;;4.90;99.90;;;;;;5068235;28;20035;-85
2022/09/29 00:38:51;;;;;;;0.50;0.50;;;5.00;99.90;;;;;;5063751;28;20159;-86
2022/09/29 00:41:23;;;;;;;0.52;0.52;;;5.10;99.90;;;;;;5083295;28;20131;-85
2022/09/29 00:44:13;;;;;;;0.50;0.50;;;5.70;99.90;;;;;;5064934;28;20044;-84
2022/09/29 00:46:54;;;;;;;0.70;0.70;;;5.30;99.90;;;;;;5076663;28;20044;-86
2022/09/29 00:49:28;;;;;;;0.60;0.60;;;5.30;99.90;;;;;;5083106;28;20036;-86
2022/09/29 00:52:07;;;;;;;0.60;0.60;;;5.30;99.90;;;;;;5099853;28;20105;-85
2022/09/29 00:55:02;;;;;;;0.60;0.60;;;5.30;99.90;;;;;;5081397;28;20088;-87
2022/09/29 00:57:39;;;;;;;0.50;0.50;;;5.20;99.90;;;;;;5083104;28;20389;-85
2022/09/29 01:00:09;;;;;;;0.70;0.70;;;5.10;99.90;;;;;;5080536;28;20044;-85
2022/09/29 01:02:43;;;;;;;0.80;0.80;;;5.00;99.90;;;;;;5078341;28;20032;-85
2022/09/29 01:05:15;;;;;;;0.45;0.45;;;5.70;99.90;;;;;;5066412;28;20493;-86
2022/09/29 01:07:44;;;;;;;0.50;0.50;;;5.30;99.90;;;;;;5080247;28;20111;-85
2022/09/29 01:10:12;;;;;;;0.70;0.70;;;4.90;99.90;;;;;;5083927;28;20087;-87
2022/09/29 01:12:38;;;;;;;0.70;0.70;;;4.80;99.90;;;;;;5085692;28;20040;-85
2022/09/29 01:15:04;;;;;;;0.55;0.55;;;4.70;99.90;;;;;;5066175;28;20040;-86
2022/09/29 01:17:30;;;;;;;;;;;4.70;99.90;;;;;;5066671;28;20040;-84
2022/09/29 01:20:21;;;;;;;0.60;0.60;;;5.70;99.90;;;;;;5081382;28;19930;-85
2022/09/29 01:23:08;;;;;;;0.60;0.60;;;5.20;99.90;;;;;;5063546;28;20047;-87
2022/09/29 01:25:43;;;;;;;;;;;4.80;99.90;;;;;;5066082;28;20044;-86
2022/09/29 01:28:33;;;;;;;0.60;0.60;;;4.80;99.90;;;;;;5084353;28;19922;-87
2022/09/29 01:31:28;;;;;;;0.60;0.60;;;4.90;99.90;;;;;;5082406;28;20048;-87
2022/09/29 01:34:30;;;;;;;0.82;0.82;;;5.00;99.90;;;;;;5069013;28;20060;-86
2022/09/29 01:37:14;;;;;;;0.63;0.63;;;5.00;99.90;;;;;;5062807;28;20048;-84
2022/09/29 01:39:47;;;;;;;0.65;0.65;;;5.10;99.90;;;;;;5075964;28;20120;-84
2022/09/29 01:42:19;;;;;;;0.65;0.65;;;5.10;99.90;;;;;;5080141;28;20097;-83
2022/09/29 01:45:14;;;;;;;0.65;0.65;;;5.20;99.90;;;;;;5080563;28;20044;-85
2022/09/29 01:47:47;;;;;;;0.50;0.50;;;5.10;99.90;;;;;;5081149;28;20082;-85
2022/09/29 01:50:19;;;;;;;0.50;0.50;;;5.20;99.90;;;;;;5080125;28;20603;-84
2022/09/29 01:52:50;;;;;;;0.70;0.70;;;5.20;99.90;;;;;;5068854;28;20052;-84
2022/09/29 01:55:19;;;;;;;0.60;0.60;;;5.50;99.90;;;;;;5082383;28;20051;-84
2022/09/29 01:57:47;;;;;;;0.50;0.50;;;5.10;99.90;;;;;;5078427;28;20355;-85
2022/09/29 02:00:16;;;;;;;0.40;0.40;;;5.00;99.90;;;;;;5064490;28;20866;-83
2022/09/29 02:02:48;;;;;;;0.50;0.50;;;5.00;99.90;;;;;;5080254;28;20071;-84
2022/09/29 02:05:32;;;;;;;0.60;0.60;;;5.00;99.90;;;;;;5096943;28;20154;-85
2022/09/29 02:08:23;;;;;;;0.68;0.65;;;5.00;99.90;;;;;;5081552;28;20040;-86
2022/09/29 02:11:13;;;;;;;0.47;0.47;;;5.20;99.90;;;;;;5060002;28;20044;-86
2022/09/29 02:13:54;;;;;;;0.60;0.60;;;5.30;99.90;;;;;;5065745;28;20409;-85
2022/09/29 02:16:33;;;;;;;0.70;0.70;;;5.40;99.90;;;;;;5082551;28;20408;-86
2022/09/29 02:19:09;;;;;;;0.82;0.80;;;5.40;99.90;;;;;;5061993;28;20374;-84
2022/09/29 02:21:35;;;;;;;0.57;0.57;;;5.50;99.90;;;;;;5079610;28;20498;-86
2022/09/29 02:24:01;;;;;;;0.52;0.52;;;6.20;99.90;;;;;;5073565;28;20071;-82
2022/09/29 02:26:33;;;;;;;1.10;1.10;;;5.50;99.90;;;;;;5081774;28;20079;-86
2022/09/29 02:29:00;;;;;;;0.63;0.63;;;5.60;99.90;;;;;;5081526;28;20062;-85
2022/09/29 02:31:27;;;;;;;1.65;1.60;;;6.00;99.90;;;;;;5083468;28;20819;-86
2022/09/29 02:33:52;;;;;;;;;;;5.70;99.90;;;;;;5081918;28;20045;-86
2022/09/29 02:36:32;;;;;;;0.50;0.50;;;5.50;99.90;;;;;;5081025;28;19985;-85
2022/09/29 02:39:07;;;;;;;0.60;0.60;;;5.60;99.90;;;;;;5081532;28;20055;-85
2022/09/29 02:42:06;;;;;;;0.55;0.55;;;5.60;99.90;;;;;;5082433;28;20044;-87
2022/09/29 02:45:06;;;;;;;0.60;0.60;;;5.50;99.90;;;;;;5079482;28;20050;-86
2022/09/29 02:47:43;;;;;;;0.68;0.68;;;5.50;99.90;;;;;;5066167;28;20114;-85
2022/09/29 02:50:18;;;;;;;0.60;0.60;;;5.50;99.90;;;;;;5084031;28;20032;-87
2022/09/29 02:53:22;;;;;;;0.70;0.70;;;5.50;99.90;;;;;;5079938;28;20501;-87
2022/09/29 02:56:12;;;;;;;0.60;0.60;;;5.40;99.90;;;;;;5080174;28;20040;-85
2022/09/29 02:59:03;;;;;;;0.80;0.80;;;5.30;99.90;;;;;;5085711;28;20043;-86
2022/09/29 03:01:33;;;;;;;0.60;0.60;;;5.30;99.90;;;;;;5080627;28;20123;-87
2022/09/29 03:03:59;;;;;;;0.80;0.80;;;5.20;99.90;;;;;;5074729;28;20139;-85
2022/09/29 03:06:26;;;;;;;0.68;0.68;;;5.20;99.90;;;;;;5064654;28;20040;-86
2022/09/29 03:08:53;;;;;;;0.63;0.63;;;5.20;99.90;;;;;;5081774;28;20064;-86
2022/09/29 03:11:18;;;;;;;0.60;0.60;;;5.10;99.90;;;;;;5082949;28;20035;-87
2022/09/29 03:13:44;;;;;;;0.60;0.60;;;5.00;99.90;;;;;;5042099;28;20055;-85
2022/09/29 03:16:10;;;;;;;0.63;0.63;;;5.00;99.90;;;;;;5062425;28;20089;-84
2022/09/29 03:18:36;;;;;;;0.77;0.77;;;4.90;99.90;;;;;;5081617;28;20458;-85
2022/09/29 03:21:03;;;;;;;0.90;0.90;;;4.90;99.90;;;;;;5079957;28;20131;-85
2022/09/29 03:23:28;;;;;;;0.60;0.60;;;4.90;99.90;;;;;;5079896;28;20532;-86
2022/09/29 03:25:58;;;;;;;0.60;0.60;;;4.80;99.90;;;;;;5084181;28;20114;-86
2022/09/29 03:28:23;;;;;;;0.60;0.60;;;4.80;99.90;;;;;;5047832;28;20385;-85
2022/09/29 03:30:49;;;;;;;0.60;0.60;;;5.30;99.90;;;;;;5062104;28;20044;-85
2022/09/29 03:33:16;;;;;;;0.70;0.70;;;4.80;99.90;;;;;;5064315;28;20040;-86
2022/09/29 03:35:42;;;;;;;0.50;0.50;;;5.50;99.90;;;;;;5073279;28;20048;-85
2022/09/29 03:38:08;;;;;;;0.95;0.95;;;4.70;99.90;;;;;;5080038;28;20129;-86
2022/09/29 03:40:33;;;;;;;0.70;0.70;;;5.40;99.90;;;;;;5079504;28;20297;-85
2022/09/29 03:42:59;;;;;;;0.60;0.60;;;5.00;99.90;;;;;;5079863;28;20048;-87
2022/09/29 03:45:24;;;;;;;0.65;0.65;;;4.60;99.90;;;;;;5079220;28;20082;-88
2022/09/29 03:47:50;;;;;;;0.60;0.60;;;5.20;99.90;;;;;;5081158;28;20036;-88
2022/09/29 03:50:16;;;;;;;0.50;0.50;;;5.30;99.90;;;;;;5078581;28;20034;-86
2022/09/29 03:52:42;;;;;;;0.63;0.63;;;4.50;99.90;;;;;;5046842;28;20575;-85
2022/09/29 03:55:08;;;;;;;0.50;0.50;;;4.50;99.90;;;;;;5074410;28;20507;-86
2022/09/29 03:57:33;;;;;;;;;;;4.50;99.90;;;;;;5079356;28;20502;-86
2022/09/29 03:59:59;;;;;;;0.70;0.70;;;4.50;99.90;;;;;;5077660;28;19924;-86
2022/09/29 04:02:25;;;;;;;0.60;0.60;;;4.50;99.90;;;;;;5063692;28;20077;-86
2022/09/29 04:04:51;;;;;;;0.60;0.60;;;4.40;99.90;;;;;;5060507;28;20058;-87
2022/09/29 04:07:16;;;;;;;0.55;0.55;;;4.40;99.90;;;;;;5058716;28;20086;-87
2022/09/29 04:09:42;;;;;;;0.63;0.63;;;4.60;99.90;;;;;;5060549;28;20047;-81
2022/09/29 04:12:08;;;;;;;0.63;0.63;;;4.50;99.90;;;;;;5064522;28;20044;-81
2022/09/29 04:14:33;;;;;;;0.60;0.60;;;4.40;99.90;;;;;;5080059;28;20055;-81
2022/09/29 04:16:59;;;;;;;0.50;0.50;;;4.40;99.90;;;;;;5054656;28;20425;-80
2022/09/29 04:19:25;;;;;;;0.68;0.68;;;4.30;99.90;;;;;;5077530;28;20054;-82
2022/09/29 04:21:50;;;;;;;0.70;0.70;;;4.30;99.90;;;;;;5085389;28;20055;-82
2022/09/29 04:24:17;;;;;;;0.52;0.52;;;4.30;99.90;;;;;;5090449;28;20044;-82
2022/09/29 04:26:43;;;;;;;0.60;0.60;;;4.30;99.90;;;;;;5070973;28;20071;-82
2022/09/29 04:29:09;;;;;;;;;;;4.20;99.90;;;;;;5033146;28;20038;-81
2022/09/29 04:31:35;;;;;;;0.60;0.60;;;4.10;99.90;;;;;;5072196;28;19924;-84
2022/09/29 04:34:01;;;;;;;0.63;0.63;;;4.10;99.90;;;;;;5059608;28;20040;-82
2022/09/29 04:36:26;;;;;;;1.05;1.05;;;4.10;99.90;;;;;;5057408;28;20040;-83
2022/09/29 04:38:53;;;;;;;0.70;0.70;;;4.00;99.90;;;;;;5062165;28;20043;-82
2022/09/29 04:41:19;;;;;;;0.60;0.60;;;4.00;99.90;;;;;;5075381;28;20043;-82
2022/09/29 04:43:44;;;;;;;0.60;0.60;;;4.00;99.90;;;;;;5047121;28;20032;-81
2022/09/29 04:46:12;;;;;;;0.70;0.70;;;4.00;99.90;;;;;;5061656;28;20060;-82
2022/09/29 04:48:39;;;;;;;0.70;0.70;;;4.00;99.90;;;;;;5076368;28;20032;-83
2022/09/29 04:51:06;;;;;;;0.73;0.73;;;4.00;99.90;;;;;;5060875;28;20040;-82
2022/09/29 04:53:32;;;;;;;0.60;0.60;;;5.00;99.90;;;;;;5074541;28;20036;-83
2022/09/29 04:56:04;;;;;;;0.60;0.60;;;4.90;99.90;;;;;;5059970;28;20766;-82
2022/09/29 04:58:30;;;;;;;0.98;0.98;;;4.20;99.90;;;;;;5090814;28;20119;-82
2022/09/29 05:01:08;;;;;;;0.70;0.70;;;4.20;99.90;;;;;;5058917;28;20139;-81
2022/09/29 05:03:33;;;;;;;0.65;0.65;;;4.20;99.90;;;;;;5071487;28;20040;-82
2022/09/29 05:05:59;;;;;;;0.60;0.60;;;4.20;99.90;;;;;;5089697;28;20115;-81
2022/09/29 05:08:25;;;;;;;0.70;0.70;;;4.20;99.90;;;;;;5063095;28;20485;-82
2022/09/29 05:10:51;;;;;;;0.50;0.50;;;4.90;99.90;;;;;;5075599;28;20131;-82
2022/09/29 05:13:16;;;;;;;0.57;0.57;;;4.10;99.90;;;;;;5094190;28;20089;-82
2022/09/29 05:15:42;;;;;;;0.70;0.70;;;5.10;99.90;;;;;;5090099;28;20044;-82
2022/09/29 05:18:08;;;;;;;0.68;0.68;;;4.30;99.90;;;;;;5065897;28;20051;-83
2022/09/29 05:20:33;;;;;;;0.60;0.60;;;4.40;99.90;;;;;;5082085;28;20119;-82
2022/09/29 05:22:59;;;;;;;0.70;0.70;;;4.50;99.90;;;;;;5091921;28;20074;-82
2022/09/29 05:25:26;;;;;;;0.60;0.60;;;4.60;99.90;;;;;;5093208;28;20147;-81
2022/09/29 05:27:52;;;;;;;0.75;0.75;;;4.60;99.90;;;;;;5057228;28;20035;-81
2022/09/29 05:30:18;;;;;;;0.57;0.57;;;4.60;99.90;;;;;;5086900;28;20060;-82
2022/09/29 05:32:44;;;;;;;0.60;0.60;;;4.70;99.90;;;;;;5075909;28;20047;-81
2022/09/29 05:35:10;;;;;;;0.52;0.52;;;4.70;99.90;;;;;;5072261;28;20570;-83
2022/09/29 05:37:36;;;;;;;0.70;0.70;;;4.70;99.90;;;;;;5087904;28;20084;-82
2022/09/29 05:40:02;;;;;;;0.60;0.60;;;5.00;99.90;;;;;;5087267;28;20040;-80
2022/09/29 05:42:27;;;;;;;0.55;0.55;;;4.80;99.90;;;;;;5081779;28;20496;-80
2022/09/29 05:44:53;;;;;;;;;;;4.80;99.90;;;;;;5086735;28;20067;-79
2022/09/29 05:47:21;;;;;;;0.70;0.70;;;4.80;99.90;;;;;;5090878;28;19920;-79
2022/09/29 05:49:50;;;;;;;3.30;2.05;;;4.90;99.90;;;;;;5078860;28;20484;-80
2022/09/29 05:52:16;;;;;;;0.65;0.65;;;4.90;99.90;;;;;;5081937;28;20048;-81
2022/09/29 05:54:45;;;;;;;0.50;0.50;;;5.00;99.90;;;;;;5089013;28;20059;-79
2022/09/29 05:57:10;;;;;;;0.60;0.60;;;5.10;99.90;;;;;;5065434;28;20489;-80
2022/09/29 05:59:36;;;;;;;2.17;1.55;;;5.10;99.90;;;;;;5071007;28;20039;-80
2022/09/29 06:02:02;;;;;;;0.80;0.80;;;5.10;99.90;;;;;;5079381;28;20076;-80
2022/09/29 06:04:27;;;;;;;0.50;0.50;;;5.20;99.90;;;;;;5067009;28;20040;-80
2022/09/29 06:06:54;;;;;;;0.68;0.68;;;5.10;99.90;;;;;;5083446;28;20035;-79
2022/09/29 06:09:19;;;;;;;1.08;1.08;;;5.10;99.90;;;;;;5085005;28;20432;-80
2022/09/29 06:11:45;;;;;;;0.50;0.50;;;5.30;99.90;;;;;;5090061;28;20055;-79
2022/09/29 06:14:11;;;;;;;0.80;0.80;;;5.10;99.90;;;;;;5078983;28;20036;-80
2022/09/29 06:16:36;;;;;;;0.60;0.60;;;5.10;99.90;;;;;;5090945;28;20097;-80
2022/09/29 06:19:03;;;;;;;0.73;0.73;;;5.10;99.90;;;;;;5083461;28;20111;-80
2022/09/29 06:21:31;;;;;;;0.60;0.60;;;5.10;99.90;;;;;;5050834;28;20087;-80
2022/09/29 06:23:57;;;;;;;0.50;0.50;;;5.10;99.90;;;;;;5090826;28;20211;-79
2022/09/29 06:26:24;;;;;;;0.93;0.93;;;5.20;99.90;;;;;;5072562;28;20044;-81
2022/09/29 06:28:54;;;;;;;1.27;1.27;;;5.20;99.90;;;;;;5091547;28;20036;-80
2022/09/29 06:31:24;;;;;;;0.70;0.70;;;5.30;99.90;;;;;;5087155;28;20127;-80
2022/09/29 06:33:50;;;;;;;0.73;0.73;;;5.40;99.90;;;;;;5070554;28;20039;-80
2022/09/29 06:39:06;;;;;;;1.00;1.00;;;5.40;99.90;;;;;;5087882;28;20428;-78
2022/09/29 06:41:31;;;;;;;0.73;0.73;;;5.40;99.90;;;;;;5062839;28;20055;-80
2022/09/29 06:43:57;;;;;;;0.60;0.60;;;5.50;99.90;;;;;;5068929;28;20043;-80
2022/09/29 06:46:25;;;;;;;1.63;1.52;;;5.80;99.90;;;;;;5082961;28;20098;-81
2022/09/29 06:48:55;;;;;;;0.60;0.60;;;5.60;99.90;;;;;;5068843;28;20072;-81
2022/09/29 06:51:22;;;;;;;0.70;0.70;;;5.70;99.90;;;;;;5102116;28;20548;-80
2022/09/29 06:53:48;;;;;;;0.50;0.50;;;5.70;99.90;;;;;;5085699;28;20032;-81
2022/09/29 06:56:14;;;;;;;0.70;0.70;;;5.70;99.90;;;;;;5081794;28;20042;-80
2022/09/29 06:58:40;;;;;;;0.50;0.50;;;5.80;99.90;;;;;;5066480;28;20104;-79
2022/09/29 07:01:06;;;;;;;0.60;0.60;;;5.80;99.90;;;;;;5095642;28;20036;-80
2022/09/29 07:03:34;;;;;;;0.60;0.60;;;5.90;99.90;;;;;;5060703;28;20028;-80
2022/09/29 07:06:08;;;;;;;0.60;0.60;;;6.00;99.90;;;;;;5062541;28;20043;-79
2022/09/29 07:08:36;;;;;;;0.60;0.60;;;6.10;99.90;;;;;;5086976;28;20044;-78
2022/09/29 07:11:04;;;;;;;0.93;0.60;;;6.10;99.90;;;;;;5078279;28;20435;-80
2022/09/29 07:13:29;;;;;;;0.68;0.68;;;6.20;99.90;;;;;;5090659;28;20043;-80
2022/09/29 07:15:55;;;;;;;0.60;0.60;;;6.30;99.90;;;;;;5079676;28;20043;-79
2022/09/29 07:18:22;;;;;;;0.50;0.50;;;6.40;99.90;;;;;;5074341;28;20126;-78
2022/09/29 07:20:48;;;;;;;0.47;0.47;;;6.50;99.90;;;;;;5075085;28;20143;-78
2022/09/29 07:23:14;;;;;;;0.60;0.60;;;6.60;99.90;;;;;;5054279;28;20557;-79
2022/09/29 07:25:40;;;;;;;0.65;0.65;;;6.70;99.90;;;;;;5057412;28;20119;-80
2022/09/29 07:28:06;;;;;;;0.60;0.60;;;6.80;99.90;;;;;;5072782;28;21799;-79
2022/09/29 07:30:31;;;;;;;0.77;0.77;;;7.20;99.90;;;;;;5076844;28;20040;-80
2022/09/29 07:32:57;;;;;;;3.55;2.30;;;7.00;99.90;;;;;;5053752;28;20527;-80
2022/09/29 07:35:24;;;;;;;0.70;0.70;;;7.10;99.90;;;;;;5077334;28;20055;-80
2022/09/29 07:37:51;;;;;;;0.98;0.98;;;7.30;99.90;;;;;;5067590;28;20044;-79
2022/09/29 07:40:18;;;;;;;0.60;0.60;;;7.30;99.90;;;;;;5087673;28;20038;-79
2022/09/29 07:42:43;;;;;;;1.85;1.52;;;7.50;99.90;;;;;;5055904;28;20063;-79
2022/09/29 07:45:10;;;;;;;1.15;1.15;;;7.50;99.90;;;;;;5072121;28;20054;-79
2022/09/29 07:47:36;;;;;;;3.40;1.83;;;7.60;99.90;;;;;;5056773;28;20405;-78
2022/09/29 07:50:02;;;;;;;0.50;0.50;;;7.60;99.90;;;;;;5068917;28;20036;-81
2022/09/29 07:52:28;;;;;;;1.42;1.33;;;7.70;99.90;;;;;;5038056;28;20043;-82
2022/09/29 07:54:53;;;;;;;0.93;0.93;;;7.70;99.90;;;;;;5070812;28;20042;-79
2022/09/29 07:57:22;;;;;;;0.60;0.60;;;7.80;99.90;;;;;;5070191;28;20510;-79
2022/09/29 07:59:47;;;;;;;1.00;1.00;;;7.90;99.90;;;;;;5070888;28;20098;-80
2022/09/29 08:02:14;;;;;;;2.50;1.95;;;7.90;99.90;;;;;;5055843;28;20067;-78
2022/09/29 08:04:41;;;;;;;0.60;0.60;;;8.10;99.90;;;;;;5086259;28;20483;-80
2022/09/29 08:07:06;;;;;;;0.70;0.70;;;8.20;99.90;;;;;;5085312;28;20123;-80
2022/09/29 08:09:34;;;;;;;0.88;0.88;;;8.30;99.90;;;;;;5071454;28;20116;-79
2022/09/29 08:12:00;;;;;;;0.60;0.60;;;8.40;99.90;;;;;;5090076;28;20135;-79
2022/09/29 08:14:25;;;;;;;0.85;0.85;;;8.50;99.90;;;;;;5051044;28;20471;-80
2022/09/29 08:16:51;;;;;;;0.60;0.60;;;8.70;99.90;;;;;;5080442;28;20191;-78
2022/09/29 08:19:18;;;;;;;1.70;1.70;;;8.80;99.90;;;;;;5077094;28;20050;-79
2022/09/29 08:21:48;;;;;;;0.50;0.50;;;8.90;99.90;;;;;;5054198;28;20501;-79
2022/09/29 08:24:17;;;;;;;0.63;0.63;;;9.00;99.90;;;;;;5092799;28;20489;-80
2022/09/29 08:26:43;;;;;;;2.28;0.80;;;9.10;99.90;;;;;;5093334;28;20074;-78
2022/09/29 08:29:10;;;;;;;1.60;1.50;;;9.30;99.90;;;;;;5098687;28;20063;-81
2022/09/29 08:31:37;;;;;;;1.20;1.15;;;9.50;99.90;;;;;;5095221;28;20102;-79
2022/09/29 08:34:04;;;;;;;2.35;2.25;;;9.50;99.90;;;;;;5092844;28;20092;-80
2022/09/29 08:36:30;;;;;;;0.73;0.73;;;9.60;99.90;;;;;;5086458;28;20039;-80
2022/09/29 08:38:57;;;;;;;1.08;1.02;;;9.70;99.90;;;;;;5079490;28;20032;-80
2022/09/29 08:41:33;;;;;;;1.17;1.15;;;9.80;99.90;;;;;;5098056;28;20052;-79
2022/09/29 08:44:06;;;;;;;0.93;0.88;;;9.90;99.90;;;;;;5067513;28;20124;-80
2022/09/29 08:46:48;;;;;;;0.90;0.90;;;10.00;99.90;;;;;;5067034;28;20550;-78
2022/09/29 08:49:23;;;;;;;0.60;0.60;;;10.20;99.90;;;;;;5089887;28;20484;-82
2022/09/29 08:51:52;;;;;;;0.60;0.60;;;10.30;99.90;;;;;;5074912;28;20084;-78
2022/09/29 08:54:37;;;;;;;0.93;0.93;;;10.40;99.90;;;;;;5090890;28;20056;-79
2022/09/29 08:57:15;;;;;;;1.13;1.02;;;10.50;99.90;;;;;;5088417;28;20040;-79
2022/09/29 08:59:43;;;;;;;0.40;0.40;;;10.50;99.90;;;;;;5086584;28;20036;-79
2022/09/29 09:02:29;;;;;;;0.50;0.50;;;10.60;99.90;;;;;;5093012;28;20092;-80
2022/09/29 09:05:12;;;;;;;0.55;0.55;;;10.70;99.90;;;;;;5081916;28;20080;-78
2022/09/29 09:07:54;;;;;;;2.78;2.13;;;10.70;99.90;;;;;;5083111;28;20040;-79
2022/09/29 09:10:35;;;;;;;1.05;1.00;;;10.80;99.90;;;;;;5080962;28;20127;-80
2022/09/29 09:13:01;;;;;;;0.82;0.82;;;10.90;99.90;;;;;;5096316;28;20086;-80
2022/09/29 09:15:38;;;;;;;0.77;0.77;;;11.00;99.90;;;;;;5095243;28;20074;-80
2022/09/29 09:18:22;;;;;;;0.50;0.50;;;11.10;99.90;;;;;;5092921;28;20048;-79
2022/09/29 09:21:09;;;;;;;1.05;0.95;;;11.20;99.90;;;;;;5099228;28;20092;-80
2022/09/29 09:23:53;;;;;;;0.70;0.70;;;11.30;99.90;;;;;;5078493;28;20059;-78
2022/09/29 09:26:36;;;;;;;2.05;1.10;;;11.50;99.90;;;;;;5089235;28;20040;-81
2022/09/29 09:29:10;;;;;;;0.98;0.98;;;11.60;99.90;;;;;;5075632;28;20397;-80
2022/09/29 09:31:44;;;;;;;1.45;0.77;;;11.70;99.90;;;;;;5088804;28;20062;-80
2022/09/29 09:34:37;;;;;;;0.80;0.80;;;11.90;99.90;;;;;;5095621;28;20134;-80
2022/09/29 09:37:19;;;;;;;0.65;0.65;;;12.00;99.90;;;;;;5098269;28;20093;-79
2022/09/29 09:39:54;;;;;;;1.27;1.20;;;12.00;99.90;;;;;;5079636;28;20467;-80
2022/09/29 09:42:25;;;;;;;0.90;0.75;;;12.10;99.90;;;;;;5069051;28;20123;-80
2022/09/29 09:44:57;;;;;;;0.80;0.70;;;12.10;99.90;;;;;;5074058;28;20036;-79
2022/09/29 09:47:28;;;;;;;0.40;0.40;;;12.30;99.90;;;;;;5071601;28;20087;-79
2022/09/29 09:50:01;;;;;;;0.30;0.30;;;12.30;99.90;;;;;;5092416;28;20044;-79
2022/09/29 09:52:42;;;;;;;1.08;0.73;;;12.50;99.90;;;;;;5082504;28;20095;-80
2022/09/29 09:55:25;;;;;;;0.30;0.30;;;12.50;99.90;;;;;;5091167;28;20087;-80
2022/09/29 09:58:12;;;;;;;0.85;0.85;;;12.70;99.90;;;;;;5092967;28;20044;-79
2022/09/29 10:00:42;;;;;;;0.50;0.50;;;12.70;99.90;;;;;;5092574;28;20122;-79
2022/09/29 10:03:08;;;;;;;1.50;0.77;;;12.80;99.90;;;;;;5087852;28;20056;-80
2022/09/29 10:05:38;;;;;;;0.47;0.47;;;12.90;99.90;;;;;;5063862;28;20090;-79
2022/09/29 10:08:41;;;;;;;0.57;0.57;;;13.10;99.90;;;;;;5089898;28;20067;-80
2022/09/29 10:11:19;;;;;;;0.45;0.45;;;13.20;99.90;;;;;;5076018;28;20468;-80
2022/09/29 10:13:47;;;;;;;0.40;0.40;;;13.30;99.90;;;;;;5091788;28;20044;-81
2022/09/29 10:16:19;;;;;;;0.60;0.60;;;13.40;99.90;;;;;;5090386;28;20044;-79
2022/09/29 10:18:47;;;;;;;0.65;0.65;;;13.50;99.90;;;;;;5080328;28;20032;-81
2022/09/29 10:21:34;;;;;;;0.90;0.88;;;13.60;99.90;;;;;;5086245;28;20046;-79
2022/09/29 10:24:01;;;;;;;0.40;0.40;;;13.70;99.90;;;;;;5081530;28;20039;-82
2022/09/29 10:26:40;;;;;;;0.60;0.60;;;13.80;99.90;;;;;;5088273;28;20097;-80
2022/09/29 10:29:40;;;;;;;0.40;0.40;;;13.90;99.90;;;;;;5087211;28;20094;-80
2022/09/29 10:32:11;;;;;;;0.30;0.30;;;14.10;99.90;;;;;;5072609;28;20056;-80
2022/09/29 10:34:40;;;;;;;0.30;0.30;;;14.20;99.90;;;;;;5088274;28;20040;-80
2022/09/29 10:37:24;;;;;;;0.30;0.30;;;14.40;99.90;;;;;;5085665;28;20509;-79
2022/09/29 10:40:00;;;;;;;0.52;0.52;;;14.60;99.90;;;;;;5081523;28;20513;-79
2022/09/29 10:42:33;;;;;;;0.73;0.73;;;14.70;99.90;;;;;;5067796;28;20051;-80
2022/09/29 10:45:01;;;;;;;0.65;0.55;;;14.70;99.90;;;;;;5079109;28;20044;-80
2022/09/29 10:47:27;;;;;;;0.40;0.40;;;14.90;99.90;;;;;;5092132;28;20054;-79
2022/09/29 10:50:19;;;;;;;0.30;0.30;;;15.00;99.90;;;;;;5083964;28;20385;-79
2022/09/29 10:52:52;;;;;;;0.47;0.45;;;14.80;99.90;;;;;;5089432;28;20048;-79
2022/09/29 10:55:21;;;;;;;0.43;0.43;;;14.70;99.90;;;;;;5089802;28;20047;-79
2022/09/29 10:57:49;;;;;;;0.38;0.38;;;14.70;99.90;;;;;;5084514;28;20052;-79
2022/09/29 11:00:34;;;;;;;0.30;0.30;;;14.80;99.90;;;;;;5088340;28;20142;-79
2022/09/29 11:03:15;;;;;;;0.30;0.30;;;14.90;99.90;;;;;;5080556;28;20044;-79
2022/09/29 11:05:58;;;;;;;0.28;0.28;;;14.80;99.90;;;;;;5074838;28;20094;-79
2022/09/29 11:08:27;;;;;;;;;;;14.90;99.90;;;;;;5082680;28;20043;-80
2022/09/29 11:11:29;;;;;;;0.30;0.30;;;15.10;99.90;;;;;;5091214;28;20691;-80
2022/09/29 11:13:56;;;;;;;0.95;0.95;;;15.30;99.90;;;;;;5061583;28;20040;-80
2022/09/29 11:16:37;;;;;;;0.30;0.30;;;15.60;99.90;;;;;;5079730;28;20047;-79
2022/09/29 11:19:13;;;;;;;0.25;0.25;;;15.70;99.90;;;;;;5081343;28;20067;-79
2022/09/29 11:21:47;;;;;;;0.47;0.32;;;15.80;99.90;;;;;;5075309;28;20401;-79
2022/09/29 11:24:35;;;;;;;0.30;0.30;;;15.80;99.90;;;;;;5095394;28;20040;-80
2022/09/29 11:27:23;;;;;;;0.32;0.32;;;15.80;99.90;;;;;;5079578;28;20052;-79
2022/09/29 11:30:19;;;;;;;0.30;0.30;;;15.60;99.90;;;;;;5092575;28;20044;-81
2022/09/29 11:32:57;;;;;;;0.47;0.47;;;15.30;99.90;;;;;;5057875;28;20604;-79
2022/09/29 11:35:35;;;;;;;0.30;0.25;;;15.00;99.90;;;;;;5074470;28;20047;-79
2022/09/29 11:38:35;;;;;;;0.30;0.30;;;14.80;99.90;;;;;;5101313;28;20044;-80
2022/09/29 11:41:15;;;;;;;0.30;0.30;;;14.50;99.90;;;;;;5090439;28;20047;-79
2022/09/29 11:44:00;;;;;;;0.30;0.30;;;14.40;99.90;;;;;;5073406;28;20044;-79
2022/09/29 11:46:54;;;;;;;0.25;0.25;;;14.40;99.90;;;;;;5089254;28;20044;-80
2022/09/29 11:49:35;;;;;;;0.20;0.20;;;14.30;99.90;;;;;;5073322;28;20078;-79
2022/09/29 11:52:10;;;;;;;0.30;0.30;;;14.40;99.90;;;;;;5082711;28;20062;-80
2022/09/29 11:54:56;;;;;;;0.30;0.30;;;14.70;99.90;;;;;;5083117;28;20515;-79
2022/09/29 11:57:45;;;;;;;0.55;0.55;;;15.10;99.90;;;;;;5089553;28;20035;-79
2022/09/29 12:00:18;;;;;;;0.30;0.30;;;15.50;99.90;;;;;;5089164;28;20044;-80
2022/09/29 12:02:55;;;;;;;0.22;0.22;;;15.80;99.90;;;;;;5069497;28;20083;-79
2022/09/29 12:05:59;;;;;;;0.20;0.20;;;16.10;99.90;;;;;;5082254;28;20445;-80
2022/09/29 12:08:30;;;;;;;0.20;0.20;;;16.40;99.90;;;;;;5079244;28;21429;-79
2022/09/29 12:11:05;;;;;;;0.20;0.20;;;16.70;99.90;;;;;;5077736;28;20028;-79
2022/09/29 12:13:49;;;;;;;0.32;0.32;;;16.80;99.90;;;;;;5076078;28;20481;-80
2022/09/29 12:16:19;;;;;;;0.63;0.63;;;16.50;99.90;;;;;;5081834;28;20052;-79
2022/09/29 12:19:12;;;;;;;0.20;0.20;;;16.20;99.90;;;;;;5086429;28;20040;-80
2022/09/29 12:21:45;;;;;;;0.20;0.20;;;15.90;99.90;;;;;;5076936;28;20135;-80
2022/09/29 12:24:19;;;;;;;0.30;0.30;;;15.70;99.90;;;;;;5080478;28;20044;-81
2022/09/29 12:26:48;;;;;;;0.20;0.20;;;15.50;99.90;;;;;;5087428;28;20032;-80
2022/09/29 12:29:43;;;;;;;0.30;0.30;;;15.50;99.90;;;;;;5089729;28;20424;-80
2022/09/29 12:32:37;;;;;;;0.40;0.40;;;15.40;99.90;;;;;;5088125;28;20052;-81
2022/09/29 12:35:17;;;;;;;0.30;0.30;;;15.30;99.90;;;;;;5079381;28;20371;-80
2022/09/29 12:38:18;;;;;;;0.30;0.30;;;15.30;99.90;;;;;;5087861;28;20393;-79
2022/09/29 12:40:58;;;;;;;0.20;0.20;;;15.30;99.90;;;;;;5056984;28;20056;-79
2022/09/29 12:43:38;;;;;;;0.25;0.25;;;15.20;99.90;;;;;;5077493;28;20052;-80
2022/09/29 12:46:27;;;;;;;0.40;0.40;;;15.10;99.90;;;;;;5082773;28;20481;-79
2022/09/29 12:49:15;;;;;;;0.30;0.30;;;15.00;99.90;;;;;;5073415;28;20111;-79
2022/09/29 12:51:47;;;;;;;0.50;0.50;;;14.80;99.90;;;;;;5071157;28;21232;-79
2022/09/29 12:54:31;;;;;;;0.30;0.30;;;14.80;99.90;;;;;;5068802;28;20489;-79
2022/09/29 12:57:04;;;;;;;0.20;0.20;;;14.60;99.90;;;;;;5066748;28;20047;-79
2022/09/29 12:59:57;;;;;;;0.30;0.30;;;14.50;99.90;;;;;;5076716;28;20373;-79
2022/09/29 13:02:44;;;;;;;0.20;0.20;;;14.50;99.90;;;;;;5076101;28;20044;-80
2022/09/29 13:05:44;;;;;;;0.45;0.45;;;14.40;99.90;;;;;;5089257;28;20043;-80
2022/09/29 13:08:57;;;;;;;0.20;0.20;;;14.40;99.90;;;;;;5089841;28;20087;-79
2022/09/29 13:11:54;;;;;;;0.20;0.20;;;14.40;99.90;;;;;;5082943;28;20080;-79
2022/09/29 13:14:59;;;;;;;0.30;0.30;;;14.50;99.90;;;;;;5069973;28;20040;-79
2022/09/29 13:17:44;;;;;;;0.20;0.20;;;14.60;99.90;;;;;;5089588;28;20040;-79
2022/09/29 13:20:41;;;;;;;0.30;0.30;;;14.60;99.90;;;;;;5106142;28;20032;-80
2022/09/29 13:23:36;;;;;;;0.45;0.45;;;14.80;99.90;;;;;;5065998;28;20101;-78
2022/09/29 13:26:17;;;;;;;0.30;0.30;;;15.00;99.90;;;;;;5087837;28;20398;-80
2022/09/29 13:28:48;;;;;;;0.35;0.35;;;15.10;99.90;;;;;;5083980;28;20074;-79
2022/09/29 13:31:18;;;;;;;0.57;0.57;;;15.10;99.90;;;;;;5074116;28;20067;-79